sensor_id;sensor_type;location;lat;lon;timestamp;pressure;altitude;pressure_sealevel;temperature;humidity
4273;BME280;63887;53.656;9.810;2023-01-08T00:01:47;100549.00;;;8.75;78.97
4273;BME280;63887;53.656;9.810;2023-01-08T00:04:15;100534.31;;;8.89;77.65
4273;BME280;63887;53.656;9.810;2023-01-08T00:06:43;100535.47;;;8.84;78.75
4273;BME280;63887;53.656;9.810;2023-01-08T00:09:09;100536.78;;;8.75;78.87
4273;BME280;63887;53.656;9.810;2023-01-08T00:11:36;100524.88;;;8.70;78.98
4273;BME280;63887;53.656;9.810;2023-01-08T00:14:03;100513.88;;;8.63;79.67
4273;BME280;63887;53.656;9.810;2023-01-08T00:16:30;100527.31;;;8.73;79.50
4273;BME280;63887;53.656;9.810;2023-01-08T00:18:56;100521.78;;;8.61;79.91
4273;BME280;63887;53.656;9.810;2023-01-08T00:21:24;100535.94;;;8.57;79.72
4273;BME280;63887;53.656;9.810;2023-01-08T00:23:51;100532.72;;;8.70;79.31
4273;BME280;63887;53.656;9.810;2023-01-08T00:26:17;100523.94;;;8.71;79.53
4273;BME280;63887;53.656;9.810;2023-01-08T00:28:44;100528.56;;;8.83;78.64
4273;BME280;63887;53.656;9.810;2023-01-08T00:31:12;100523.00;;;8.72;79.58
4273;BME280;63887;53.656;9.810;2023-01-08T00:33:39;100520.72;;;8.65;79.85
4273;BME280;63887;53.656;9.810;2023-01-08T00:36:07;100511.31;;;8.61;80.31
4273;BME280;63887;53.656;9.810;2023-01-08T00:38:35;100511.28;;;8.63;79.77
4273;BME280;63887;53.656;9.810;2023-01-08T00:41:02;100508.72;;;8.61;80.04
4273;BME280;63887;53.656;9.810;2023-01-08T00:43:28;100512.81;;;8.67;79.65
4273;BME280;63887;53.656;9.810;2023-01-08T00:45:55;100490.41;;;8.79;78.99
4273;BME280;63887;53.656;9.810;2023-01-08T00:48:21;100488.94;;;8.73;79.86
4273;BME280;63887;53.656;9.810;2023-01-08T00:50:49;100481.34;;;8.69;80.29
4273;BME280;63887;53.656;9.810;2023-01-08T00:53:16;100485.56;;;8.71;79.72
4273;BME280;63887;53.656;9.810;2023-01-08T00:55:44;100485.66;;;8.70;80.22
4273;BME280;63887;53.656;9.810;2023-01-08T00:58:11;100478.88;;;8.65;80.21
4273;BME280;63887;53.656;9.810;2023-01-08T01:00:38;100482.94;;;8.71;79.98
4273;BME280;63887;53.656;9.810;2023-01-08T01:03:05;100480.41;;;8.70;79.61
4273;BME280;63887;53.656;9.810;2023-01-08T01:05:31;100491.56;;;8.73;79.74
4273;BME280;63887;53.656;9.810;2023-01-08T01:07:58;100504.56;;;8.75;79.81
4273;BME280;63887;53.656;9.810;2023-01-08T01:10:24;100491.03;;;8.66;80.19
4273;BME280;63887;53.656;9.810;2023-01-08T01:12:52;100483.78;;;8.72;79.89
4273;BME280;63887;53.656;9.810;2023-01-08T01:15:19;100483.47;;;8.78;79.37
4273;BME280;63887;53.656;9.810;2023-01-08T01:17:45;100489.56;;;8.78;79.60
4273;BME280;63887;53.656;9.810;2023-01-08T01:20:14;100495.47;;;8.82;78.87
4273;BME280;63887;53.656;9.810;2023-01-08T01:22:41;100490.16;;;8.83;79.35
4273;BME280;63887;53.656;9.810;2023-01-08T01:25:08;100484.44;;;8.92;78.63
4273;BME280;63887;53.656;9.810;2023-01-08T01:27:35;100478.69;;;8.86;79.05
4273;BME280;63887;53.656;9.810;2023-01-08T01:30:03;100472.78;;;8.82;79.89
4273;BME280;63887;53.656;9.810;2023-01-08T01:32:30;100480.84;;;8.95;79.00
4273;BME280;63887;53.656;9.810;2023-01-08T01:34:56;100480.38;;;8.87;79.36
4273;BME280;63887;53.656;9.810;2023-01-08T01:37:23;100472.63;;;8.85;79.86
4273;BME280;63887;53.656;9.810;2023-01-08T01:39:49;100472.03;;;8.80;80.22
4273;BME280;63887;53.656;9.810;2023-01-08T01:42:18;100469.25;;;8.83;80.24
4273;BME280;63887;53.656;9.810;2023-01-08T01:44:58;100469.25;;;8.83;80.35
4273;BME280;63887;53.656;9.810;2023-01-08T01:47:29;100470.97;;;9.00;80.10
4273;BME280;63887;53.656;9.810;2023-01-08T01:50:00;100464.59;;;8.88;80.17
4273;BME280;63887;53.656;9.810;2023-01-08T01:52:30;100469.09;;;8.86;80.62
4273;BME280;63887;53.656;9.810;2023-01-08T01:54:59;100472.47;;;8.88;80.55
4273;BME280;63887;53.656;9.810;2023-01-08T01:57:26;100462.00;;;8.88;81.00
4273;BME280;63887;53.656;9.810;2023-01-08T01:59:53;100462.16;;;8.85;80.49
4273;BME280;63887;53.656;9.810;2023-01-08T02:02:21;100460.22;;;8.89;80.60
4273;BME280;63887;53.656;9.810;2023-01-08T02:04:49;100458.38;;;8.91;80.88
4273;BME280;63887;53.656;9.810;2023-01-08T02:07:19;100463.88;;;9.02;80.61
4273;BME280;63887;53.656;9.810;2023-01-08T02:09:52;100458.06;;;8.97;80.45
4273;BME280;63887;53.656;9.810;2023-01-08T02:12:23;100451.22;;;8.94;80.94
4273;BME280;63887;53.656;9.810;2023-01-08T02:14:59;100454.16;;;8.88;81.14
4273;BME280;63887;53.656;9.810;2023-01-08T02:17:34;100442.94;;;8.86;80.97
4273;BME280;63887;53.656;9.810;2023-01-08T02:20:09;100454.56;;;8.81;81.42
4273;BME280;63887;53.656;9.810;2023-01-08T02:23:04;100454.88;;;8.75;82.17
4273;BME280;63887;53.656;9.810;2023-01-08T02:25:51;100443.94;;;8.84;81.60
4273;BME280;63887;53.656;9.810;2023-01-08T02:28:18;100435.66;;;8.91;81.22
4273;BME280;63887;53.656;9.810;2023-01-08T02:30:46;100433.72;;;8.79;81.87
4273;BME280;63887;53.656;9.810;2023-01-08T02:33:13;100434.13;;;8.72;82.38
4273;BME280;63887;53.656;9.810;2023-01-08T02:35:43;100434.19;;;8.70;82.35
4273;BME280;63887;53.656;9.810;2023-01-08T02:38:13;100427.63;;;8.63;82.73
4273;BME280;63887;53.656;9.810;2023-01-08T02:40:45;100428.75;;;8.57;83.09
4273;BME280;63887;53.656;9.810;2023-01-08T02:43:23;100429.22;;;8.65;82.61
4273;BME280;63887;53.656;9.810;2023-01-08T02:45:54;100422.22;;;8.66;82.68
4273;BME280;63887;53.656;9.810;2023-01-08T02:48:27;100406.44;;;8.68;82.90
4273;BME280;63887;53.656;9.810;2023-01-08T02:51:00;100411.94;;;8.63;82.56
4273;BME280;63887;53.656;9.810;2023-01-08T02:53:32;100409.22;;;8.64;82.43
4273;BME280;63887;53.656;9.810;2023-01-08T02:56:03;100412.06;;;8.60;82.64
4273;BME280;63887;53.656;9.810;2023-01-08T02:58:34;100416.78;;;8.53;83.14
4273;BME280;63887;53.656;9.810;2023-01-08T03:01:05;100411.84;;;8.47;83.62
4273;BME280;63887;53.656;9.810;2023-01-08T03:03:33;100421.09;;;8.37;83.90
4273;BME280;63887;53.656;9.810;2023-01-08T03:06:02;100423.63;;;8.39;83.88
4273;BME280;63887;53.656;9.810;2023-01-08T03:08:30;100424.81;;;8.31;84.36
4273;BME280;63887;53.656;9.810;2023-01-08T03:11:03;100432.13;;;8.25;84.70
4273;BME280;63887;53.656;9.810;2023-01-08T03:13:33;100428.13;;;8.18;84.56
4273;BME280;63887;53.656;9.810;2023-01-08T03:16:05;100432.66;;;8.14;85.18
4273;BME280;63887;53.656;9.810;2023-01-08T03:18:38;100425.81;;;8.12;85.39
4273;BME280;63887;53.656;9.810;2023-01-08T03:21:07;100421.75;;;8.23;84.49
4273;BME280;63887;53.656;9.810;2023-01-08T03:23:36;100424.75;;;8.16;85.02
4273;BME280;63887;53.656;9.810;2023-01-08T03:26:05;100415.47;;;8.10;85.24
4273;BME280;63887;53.656;9.810;2023-01-08T03:28:36;100417.53;;;8.03;85.90
4273;BME280;63887;53.656;9.810;2023-01-08T03:31:05;100436.66;;;8.04;86.07
4273;BME280;63887;53.656;9.810;2023-01-08T03:33:32;100430.38;;;8.08;85.57
4273;BME280;63887;53.656;9.810;2023-01-08T03:36:02;100420.22;;;8.19;85.36
4273;BME280;63887;53.656;9.810;2023-01-08T03:38:33;100410.47;;;8.23;85.44
4273;BME280;63887;53.656;9.810;2023-01-08T03:41:05;100419.22;;;8.22;85.71
4273;BME280;63887;53.656;9.810;2023-01-08T03:43:35;100414.59;;;8.27;85.54
4273;BME280;63887;53.656;9.810;2023-01-08T03:46:04;100416.97;;;8.31;85.18
4273;BME280;63887;53.656;9.810;2023-01-08T03:48:34;100422.44;;;8.27;85.38
4273;BME280;63887;53.656;9.810;2023-01-08T03:51:02;100418.41;;;8.39;85.35
4273;BME280;63887;53.656;9.810;2023-01-08T03:53:28;100406.88;;;8.43;84.90
4273;BME280;63887;53.656;9.810;2023-01-08T03:55:55;100404.22;;;8.60;83.91
4273;BME280;63887;53.656;9.810;2023-01-08T03:58:22;100405.69;;;8.65;83.58
4273;BME280;63887;53.656;9.810;2023-01-08T04:00:50;100410.00;;;8.66;84.18
4273;BME280;63887;53.656;9.810;2023-01-08T04:03:17;100421.66;;;8.59;84.46
4273;BME280;63887;53.656;9.810;2023-01-08T04:05:44;100413.91;;;8.58;84.39
4273;BME280;63887;53.656;9.810;2023-01-08T04:08:10;100418.59;;;8.69;83.71
4273;BME280;63887;53.656;9.810;2023-01-08T04:10:37;100398.78;;;8.64;83.86
4273;BME280;63887;53.656;9.810;2023-01-08T04:13:03;100395.66;;;8.74;83.85
4273;BME280;63887;53.656;9.810;2023-01-08T04:15:29;100387.13;;;8.70;83.92
4273;BME280;63887;53.656;9.810;2023-01-08T04:17:57;100398.09;;;8.77;83.07
4273;BME280;63887;53.656;9.810;2023-01-08T04:20:24;100396.56;;;8.73;83.40
4273;BME280;63887;53.656;9.810;2023-01-08T04:22:50;100393.66;;;8.79;83.28
4273;BME280;63887;53.656;9.810;2023-01-08T04:25:17;100386.28;;;8.70;83.59
4273;BME280;63887;53.656;9.810;2023-01-08T04:27:44;100392.28;;;8.72;83.47
4273;BME280;63887;53.656;9.810;2023-01-08T04:30:11;100391.44;;;8.71;83.74
4273;BME280;63887;53.656;9.810;2023-01-08T04:32:37;100384.34;;;8.73;83.40
4273;BME280;63887;53.656;9.810;2023-01-08T04:35:06;100383.59;;;8.71;83.73
4273;BME280;63887;53.656;9.810;2023-01-08T04:37:32;100388.91;;;8.70;83.68
4273;BME280;63887;53.656;9.810;2023-01-08T04:39:59;100385.38;;;8.71;83.77
4273;BME280;63887;53.656;9.810;2023-01-08T04:42:25;100377.81;;;8.82;83.25
4273;BME280;63887;53.656;9.810;2023-01-08T04:44:51;100376.97;;;8.81;83.34
4273;BME280;63887;53.656;9.810;2023-01-08T04:47:18;100369.19;;;8.80;83.47
4273;BME280;63887;53.656;9.810;2023-01-08T04:49:44;100359.66;;;8.79;83.50
4273;BME280;63887;53.656;9.810;2023-01-08T04:52:13;100363.72;;;8.84;82.58
4273;BME280;63887;53.656;9.810;2023-01-08T04:54:40;100365.88;;;8.76;83.46
4273;BME280;63887;53.656;9.810;2023-01-08T04:57:06;100361.75;;;8.72;83.73
4273;BME280;63887;53.656;9.810;2023-01-08T04:59:33;100359.38;;;8.68;83.91
4273;BME280;63887;53.656;9.810;2023-01-08T05:01:59;100354.25;;;8.66;84.08
4273;BME280;63887;53.656;9.810;2023-01-08T05:04:26;100347.91;;;8.70;83.55
4273;BME280;63887;53.656;9.810;2023-01-08T05:06:52;100345.69;;;8.62;83.94
4273;BME280;63887;53.656;9.810;2023-01-08T05:09:20;100347.91;;;8.70;83.84
4273;BME280;63887;53.656;9.810;2023-01-08T05:11:46;100356.69;;;8.69;83.76
4273;BME280;63887;53.656;9.810;2023-01-08T05:14:13;100351.38;;;8.71;83.52
4273;BME280;63887;53.656;9.810;2023-01-08T05:16:39;100344.09;;;8.60;84.27
4273;BME280;63887;53.656;9.810;2023-01-08T05:19:06;100345.09;;;8.57;84.53
4273;BME280;63887;53.656;9.810;2023-01-08T05:21:33;100347.97;;;8.53;84.43
4273;BME280;63887;53.656;9.810;2023-01-08T05:23:59;100352.34;;;8.52;84.91
4273;BME280;63887;53.656;9.810;2023-01-08T05:26:27;100344.72;;;8.48;85.44
4273;BME280;63887;53.656;9.810;2023-01-08T05:28:53;100337.81;;;8.47;85.56
4273;BME280;63887;53.656;9.810;2023-01-08T05:31:20;100340.47;;;8.62;84.49
4273;BME280;63887;53.656;9.810;2023-01-08T05:33:46;100341.06;;;8.52;85.14
4273;BME280;63887;53.656;9.810;2023-01-08T05:36:13;100346.59;;;8.46;85.37
4273;BME280;63887;53.656;9.810;2023-01-08T05:38:40;100345.06;;;8.42;85.49
4273;BME280;63887;53.656;9.810;2023-01-08T05:41:07;100349.28;;;8.44;85.60
4273;BME280;63887;53.656;9.810;2023-01-08T05:43:35;100345.91;;;8.42;85.67
4273;BME280;63887;53.656;9.810;2023-01-08T05:46:02;100350.75;;;8.50;85.58
4273;BME280;63887;53.656;9.810;2023-01-08T05:48:31;100338.00;;;8.59;84.78
4273;BME280;63887;53.656;9.810;2023-01-08T05:50:58;100346.78;;;8.58;84.86
4273;BME280;63887;53.656;9.810;2023-01-08T05:53:24;100347.97;;;8.53;85.08
4273;BME280;63887;53.656;9.810;2023-01-08T05:55:51;100339.59;;;8.46;85.63
4273;BME280;63887;53.656;9.810;2023-01-08T05:58:17;100346.78;;;8.58;84.81
4273;BME280;63887;53.656;9.810;2023-01-08T06:00:45;100348.72;;;8.55;84.99
4273;BME280;63887;53.656;9.810;2023-01-08T06:03:12;100341.22;;;8.49;85.33
4273;BME280;63887;53.656;9.810;2023-01-08T06:05:38;100335.16;;;8.48;85.47
4273;BME280;63887;53.656;9.810;2023-01-08T06:08:05;100332.00;;;8.42;85.70
4273;BME280;63887;53.656;9.810;2023-01-08T06:10:31;100329.13;;;8.46;85.55
4273;BME280;63887;53.656;9.810;2023-01-08T06:12:57;100328.94;;;8.66;84.98
4273;BME280;63887;53.656;9.810;2023-01-08T06:15:24;100332.78;;;8.59;85.00
4273;BME280;63887;53.656;9.810;2023-01-08T06:17:52;100331.53;;;8.51;85.50
4273;BME280;63887;53.656;9.810;2023-01-08T06:20:18;100333.81;;;8.57;85.27
4273;BME280;63887;53.656;9.810;2023-01-08T06:22:45;100337.00;;;8.62;85.37
4273;BME280;63887;53.656;9.810;2023-01-08T06:25:11;100341.72;;;8.55;85.86
4273;BME280;63887;53.656;9.810;2023-01-08T06:27:38;100337.50;;;8.53;85.92
4273;BME280;63887;53.656;9.810;2023-01-08T06:30:05;100329.44;;;8.73;84.74
4273;BME280;63887;53.656;9.810;2023-01-08T06:32:32;100336.88;;;8.65;85.23
4273;BME280;63887;53.656;9.810;2023-01-08T06:35:00;100328.00;;;8.68;85.44
4273;BME280;63887;53.656;9.810;2023-01-08T06:37:27;100333.81;;;8.57;86.04
4273;BME280;63887;53.656;9.810;2023-01-08T06:39:53;100329.41;;;8.57;85.88
4273;BME280;63887;53.656;9.810;2023-01-08T06:42:20;100319.41;;;8.65;85.47
4273;BME280;63887;53.656;9.810;2023-01-08T06:44:46;100321.19;;;8.65;85.86
4273;BME280;63887;53.656;9.810;2023-01-08T06:47:12;100322.78;;;8.68;85.72
4273;BME280;63887;53.656;9.810;2023-01-08T06:49:39;100312.50;;;8.64;85.88
4273;BME280;63887;53.656;9.810;2023-01-08T06:52:07;100314.59;;;8.74;85.06
4273;BME280;63887;53.656;9.810;2023-01-08T06:54:33;100314.25;;;8.64;85.68
4273;BME280;63887;53.656;9.810;2023-01-08T06:57:00;100312.50;;;8.64;85.96
4273;BME280;63887;53.656;9.810;2023-01-08T06:59:26;100316.09;;;8.62;85.74
4273;BME280;63887;53.656;9.810;2023-01-08T07:01:53;100320.66;;;8.58;86.16
4273;BME280;63887;53.656;9.810;2023-01-08T07:04:19;100326.88;;;8.56;86.30
4273;BME280;63887;53.656;9.810;2023-01-08T07:06:46;100319.72;;;8.59;86.21
4273;BME280;63887;53.656;9.810;2023-01-08T07:09:14;100317.81;;;8.63;86.00
4273;BME280;63887;53.656;9.810;2023-01-08T07:11:41;100311.72;;;8.62;85.89
4273;BME280;63887;53.656;9.810;2023-01-08T07:14:07;100310.03;;;8.61;86.03
4273;BME280;63887;53.656;9.810;2023-01-08T07:16:34;100308.59;;;8.56;86.50
4273;BME280;63887;53.656;9.810;2023-01-08T07:19:00;100310.88;;;8.62;86.21
4273;BME280;63887;53.656;9.810;2023-01-08T07:21:27;100315.44;;;8.74;85.80
4273;BME280;63887;53.656;9.810;2023-01-08T07:23:53;100305.72;;;8.76;85.60
4273;BME280;63887;53.656;9.810;2023-01-08T07:26:21;100306.06;;;8.70;85.82
4273;BME280;63887;53.656;9.810;2023-01-08T07:28:48;100307.28;;;8.64;86.03
4273;BME280;63887;53.656;9.810;2023-01-08T07:31:14;100309.09;;;8.62;86.23
4273;BME280;63887;53.656;9.810;2023-01-08T07:33:41;100300.50;;;8.60;86.19
4273;BME280;63887;53.656;9.810;2023-01-08T07:36:08;100307.41;;;8.61;86.35
4273;BME280;63887;53.656;9.810;2023-01-08T07:38:34;100302.88;;;8.65;86.13
4273;BME280;63887;53.656;9.810;2023-01-08T07:41:01;100303.88;;;8.62;86.09
4273;BME280;63887;53.656;9.810;2023-01-08T07:43:29;100303.72;;;8.65;85.88
4273;BME280;63887;53.656;9.810;2023-01-08T07:45:55;100308.34;;;8.60;86.17
4273;BME280;63887;53.656;9.810;2023-01-08T07:48:22;100303.19;;;8.59;86.93
4273;BME280;63887;53.656;9.810;2023-01-08T07:50:49;100298.50;;;8.65;86.68
4273;BME280;63887;53.656;9.810;2023-01-08T07:53:15;100294.19;;;8.64;87.04
4273;BME280;63887;53.656;9.810;2023-01-08T07:55:42;100296.91;;;8.63;87.51
4273;BME280;63887;53.656;9.810;2023-01-08T07:58:09;100300.94;;;8.69;87.82
4273;BME280;63887;53.656;9.810;2023-01-08T08:00:37;100284.31;;;8.70;88.58
4273;BME280;63887;53.656;9.810;2023-01-08T08:03:05;100295.63;;;8.70;88.82
4273;BME280;63887;53.656;9.810;2023-01-08T08:05:34;100292.00;;;8.73;89.37
4273;BME280;63887;53.656;9.810;2023-01-08T08:08:00;100288.34;;;8.75;88.85
4273;BME280;63887;53.656;9.810;2023-01-08T08:10:27;100290.47;;;8.69;89.26
4273;BME280;63887;53.656;9.810;2023-01-08T08:12:53;100288.97;;;8.64;89.65
4273;BME280;63887;53.656;9.810;2023-01-08T08:15:20;100280.50;;;8.75;89.86
4273;BME280;63887;53.656;9.810;2023-01-08T08:17:48;100284.06;;;8.74;89.83
4273;BME280;63887;53.656;9.810;2023-01-08T08:20:15;100282.56;;;8.70;90.41
4273;BME280;63887;53.656;9.810;2023-01-08T08:22:42;100285.59;;;8.78;89.86
4273;BME280;63887;53.656;9.810;2023-01-08T08:25:09;100278.84;;;8.74;90.20
4273;BME280;63887;53.656;9.810;2023-01-08T08:27:35;100278.00;;;8.74;90.54
4273;BME280;63887;53.656;9.810;2023-01-08T08:30:03;100277.56;;;8.65;90.74
4273;BME280;63887;53.656;9.810;2023-01-08T08:32:29;100278.34;;;8.68;90.60
4273;BME280;63887;53.656;9.810;2023-01-08T08:34:57;100279.50;;;8.78;90.73
4273;BME280;63887;53.656;9.810;2023-01-08T08:37:24;100279.66;;;8.75;91.02
4273;BME280;63887;53.656;9.810;2023-01-08T08:39:50;100279.84;;;8.72;91.23
4273;BME280;63887;53.656;9.810;2023-01-08T08:42:17;100276.97;;;8.76;91.05
4273;BME280;63887;53.656;9.810;2023-01-08T08:44:43;100276.31;;;8.73;91.35
4273;BME280;63887;53.656;9.810;2023-01-08T08:47:10;100266.38;;;8.79;90.89
4273;BME280;63887;53.656;9.810;2023-01-08T08:49:37;100278.00;;;8.74;91.00
4273;BME280;63887;53.656;9.810;2023-01-08T08:52:05;100273.69;;;8.73;91.06
4273;BME280;63887;53.656;9.810;2023-01-08T08:54:32;100280.94;;;8.83;90.23
4273;BME280;63887;53.656;9.810;2023-01-08T08:56:58;100288.03;;;8.81;90.47
4273;BME280;63887;53.656;9.810;2023-01-08T08:59:25;100284.41;;;8.84;90.36
4273;BME280;63887;53.656;9.810;2023-01-08T09:01:51;100290.56;;;8.83;91.19
4273;BME280;63887;53.656;9.810;2023-01-08T09:04:18;100291.41;;;8.99;90.45
4273;BME280;63887;53.656;9.810;2023-01-08T09:06:44;100284.22;;;9.03;90.37
4273;BME280;63887;53.656;9.810;2023-01-08T09:09:12;100278.41;;;8.98;90.83
4273;BME280;63887;53.656;9.810;2023-01-08T09:11:39;100285.44;;;8.97;90.96
4273;BME280;63887;53.656;9.810;2023-01-08T09:14:06;100277.41;;;9.00;90.71
4273;BME280;63887;53.656;9.810;2023-01-08T09:16:32;100278.34;;;8.99;91.19
4273;BME280;63887;53.656;9.810;2023-01-08T09:19:00;100275.97;;;8.94;91.63
4273;BME280;63887;53.656;9.810;2023-01-08T09:21:27;100294.53;;;8.90;92.21
4273;BME280;63887;53.656;9.810;2023-01-08T09:23:53;100279.84;;;8.87;91.97
4273;BME280;63887;53.656;9.810;2023-01-08T09:26:21;100286.09;;;8.85;92.64
4273;BME280;63887;53.656;9.810;2023-01-08T09:28:48;100284.16;;;8.88;92.14
4273;BME280;63887;53.656;9.810;2023-01-08T09:31:14;100286.09;;;8.85;92.18
4273;BME280;63887;53.656;9.810;2023-01-08T09:33:41;100288.72;;;8.85;92.33
4273;BME280;63887;53.656;9.810;2023-01-08T09:36:08;100277.50;;;8.83;92.16
4273;BME280;63887;53.656;9.810;2023-01-08T09:38:35;100273.88;;;8.85;92.03
4273;BME280;63887;53.656;9.810;2023-01-08T09:41:04;100266.38;;;8.95;91.66
4273;BME280;63887;53.656;9.810;2023-01-08T09:43:37;100268.13;;;8.94;91.58
4273;BME280;63887;53.656;9.810;2023-01-08T09:46:06;100270.41;;;9.01;91.05
4273;BME280;63887;53.656;9.810;2023-01-08T09:48:35;100270.03;;;9.07;90.86
4273;BME280;63887;53.656;9.810;2023-01-08T09:51:02;100277.28;;;9.17;89.83
4273;BME280;63887;53.656;9.810;2023-01-08T09:53:31;100264.97;;;9.19;90.23
4273;BME280;63887;53.656;9.810;2023-01-08T09:56:00;100260.75;;;9.17;90.56
4273;BME280;63887;53.656;9.810;2023-01-08T09:58:34;100254.69;;;9.16;90.69
4273;BME280;63887;53.656;9.810;2023-01-08T10:01:04;100261.09;;;9.26;90.68
4273;BME280;63887;53.656;9.810;2023-01-08T10:03:38;100262.22;;;9.37;90.25
4273;BME280;63887;53.656;9.810;2023-01-08T10:06:09;100262.22;;;9.37;89.61
4273;BME280;63887;53.656;9.810;2023-01-08T10:08:36;100262.63;;;9.45;89.15
4273;BME280;63887;53.656;9.810;2023-01-08T10:11:04;100260.34;;;9.54;88.11
4273;BME280;63887;53.656;9.810;2023-01-08T10:13:32;100256.22;;;9.65;87.68
4273;BME280;63887;53.656;9.810;2023-01-08T10:16:00;100256.97;;;9.52;88.51
4273;BME280;63887;53.656;9.810;2023-01-08T10:18:29;100256.88;;;9.54;88.56
4273;BME280;63887;53.656;9.810;2023-01-08T10:20:58;100262.88;;;9.56;87.92
4273;BME280;63887;53.656;9.810;2023-01-08T10:23:24;100260.16;;;9.57;87.81
4273;BME280;63887;53.656;9.810;2023-01-08T10:25:52;100245.31;;;9.72;87.92
4273;BME280;63887;53.656;9.810;2023-01-08T10:28:22;100250.25;;;9.63;88.46
4273;BME280;63887;53.656;9.810;2023-01-08T10:30:49;100247.94;;;9.72;87.48
4273;BME280;63887;53.656;9.810;2023-01-08T10:33:19;100240.06;;;9.58;88.00
4273;BME280;63887;53.656;9.810;2023-01-08T10:35:59;100234.75;;;9.74;87.65
4273;BME280;63887;53.656;9.810;2023-01-08T10:38:29;100237.25;;;9.61;87.93
4273;BME280;63887;53.656;9.810;2023-01-08T10:40:57;100234.13;;;9.99;85.58
4273;BME280;63887;53.656;9.810;2023-01-08T10:43:27;100224.47;;;9.71;86.56
4273;BME280;63887;53.656;9.810;2023-01-08T10:45:57;100207.53;;;9.76;86.71
4273;BME280;63887;53.656;9.810;2023-01-08T10:48:29;100212.31;;;9.84;85.92
4273;BME280;63887;53.656;9.810;2023-01-08T10:51:12;100230.75;;;9.82;86.36
4273;BME280;63887;53.656;9.810;2023-01-08T10:53:39;100225.41;;;9.84;86.54
4273;BME280;63887;53.656;9.810;2023-01-08T10:56:17;100234.88;;;10.01;85.56
4273;BME280;63887;53.656;9.810;2023-01-08T10:58:44;100230.19;;;9.92;85.66
4273;BME280;63887;53.656;9.810;2023-01-08T11:01:15;100231.75;;;9.80;86.21
4273;BME280;63887;53.656;9.810;2023-01-08T11:03:48;100239.59;;;9.80;86.74
4273;BME280;63887;53.656;9.810;2023-01-08T11:06:20;100244.75;;;9.81;86.66
4273;BME280;63887;53.656;9.810;2023-01-08T11:08:49;100239.91;;;9.90;85.38
4273;BME280;63887;53.656;9.810;2023-01-08T11:11:16;100239.63;;;9.94;85.41
4273;BME280;63887;53.656;9.810;2023-01-08T11:13:52;100243.81;;;9.68;86.63
4273;BME280;63887;53.656;9.810;2023-01-08T11:16:20;100249.44;;;9.76;86.55
4273;BME280;63887;53.656;9.810;2023-01-08T11:18:49;100242.97;;;9.68;86.83
4273;BME280;63887;53.656;9.810;2023-01-08T11:21:20;100245.50;;;9.69;86.88
4273;BME280;63887;53.656;9.810;2023-01-08T11:24:01;100237.75;;;9.68;86.91
4273;BME280;63887;53.656;9.810;2023-01-08T11:26:29;100238.00;;;9.63;86.90
4273;BME280;63887;53.656;9.810;2023-01-08T11:29:01;100223.72;;;9.83;85.13
4273;BME280;63887;53.656;9.810;2023-01-08T11:31:35;100213.44;;;9.94;85.15
4273;BME280;63887;53.656;9.810;2023-01-08T11:34:12;100215.88;;;9.97;84.90
4273;BME280;63887;53.656;9.810;2023-01-08T11:36:46;100215.69;;;9.86;85.90
4273;BME280;63887;53.656;9.810;2023-01-08T11:39:15;100208.88;;;9.83;86.13
4273;BME280;63887;53.656;9.810;2023-01-08T11:42:02;100205.63;;;9.64;86.60
4273;BME280;63887;53.656;9.810;2023-01-08T11:44:39;100212.00;;;9.60;86.55
4273;BME280;63887;53.656;9.810;2023-01-08T11:47:13;100207.94;;;9.40;87.46
4273;BME280;63887;53.656;9.810;2023-01-08T11:49:54;100200.22;;;9.53;87.13
4273;BME280;63887;53.656;9.810;2023-01-08T11:52:33;100194.25;;;9.35;87.28
4273;BME280;63887;53.656;9.810;2023-01-08T11:55:15;100194.75;;;9.42;86.28
4273;BME280;63887;53.656;9.810;2023-01-08T11:58:01;100186.53;;;9.48;85.95
4273;BME280;63887;53.656;9.810;2023-01-08T12:00:48;100184.28;;;9.42;86.39
4273;BME280;63887;53.656;9.810;2023-01-08T12:03:28;100178.13;;;9.43;85.27
4273;BME280;63887;53.656;9.810;2023-01-08T12:06:03;100182.78;;;9.38;85.48
4273;BME280;63887;53.656;9.810;2023-01-08T12:08:36;100176.03;;;9.34;86.01
4273;BME280;63887;53.656;9.810;2023-01-08T12:11:18;100175.38;;;9.30;85.61
4273;BME280;63887;53.656;9.810;2023-01-08T12:13:56;100171.41;;;9.39;84.14
4273;BME280;63887;53.656;9.810;2023-01-08T12:16:40;100160.25;;;9.49;83.01
4273;BME280;63887;53.656;9.810;2023-01-08T12:19:19;100165.97;;;9.42;83.20
4273;BME280;63887;53.656;9.810;2023-01-08T12:21:59;100160.00;;;9.40;83.17
4273;BME280;63887;53.656;9.810;2023-01-08T12:24:46;100161.56;;;9.42;82.86
4273;BME280;63887;53.656;9.810;2023-01-08T12:27:26;100159.16;;;9.39;83.40
4273;BME280;63887;53.656;9.810;2023-01-08T12:30:10;100160.63;;;9.29;83.24
4273;BME280;63887;53.656;9.810;2023-01-08T12:32:44;100156.66;;;9.22;83.33
4273;BME280;63887;53.656;9.810;2023-01-08T12:35:16;100153.88;;;9.25;82.46
4273;BME280;63887;53.656;9.810;2023-01-08T12:37:49;100157.63;;;9.35;81.99
4273;BME280;63887;53.656;9.810;2023-01-08T12:40:21;100151.53;;;9.35;82.17
4273;BME280;63887;53.656;9.810;2023-01-08T12:42:49;100152.13;;;9.40;81.51
4273;BME280;63887;53.656;9.810;2023-01-08T12:45:21;100145.00;;;9.27;82.01
4273;BME280;63887;53.656;9.810;2023-01-08T12:47:55;100152.00;;;9.27;81.51
4273;BME280;63887;53.656;9.810;2023-01-08T12:50:33;100138.38;;;9.36;79.98
4273;BME280;63887;53.656;9.810;2023-01-08T12:53:07;100145.97;;;9.41;78.94
4273;BME280;63887;53.656;9.810;2023-01-08T12:55:45;100144.16;;;9.27;79.81
4273;BME280;63887;53.656;9.810;2023-01-08T12:58:22;100149.69;;;9.22;80.17
4273;BME280;63887;53.656;9.810;2023-01-08T13:00:55;100140.41;;;9.17;79.16
4273;BME280;63887;53.656;9.810;2023-01-08T13:03:27;100147.41;;;9.16;79.68
4273;BME280;63887;53.656;9.810;2023-01-08T13:06:05;100136.31;;;9.27;79.57
4273;BME280;63887;53.656;9.810;2023-01-08T13:08:34;100137.69;;;9.18;79.58
4273;BME280;63887;53.656;9.810;2023-01-08T13:11:02;100125.72;;;9.14;79.75
4273;BME280;63887;53.656;9.810;2023-01-08T13:13:31;100128.34;;;9.14;80.18
4273;BME280;63887;53.656;9.810;2023-01-08T13:16:06;100119.84;;;9.11;80.45
4273;BME280;63887;53.656;9.810;2023-01-08T13:18:33;100114.16;;;9.33;79.90
4273;BME280;63887;53.656;9.810;2023-01-08T13:21:01;100114.97;;;9.19;80.93